KFCS/FCS METAR and TAF weather

Enter ICAO airport designator
Station Type Date Time Source
KFCS METAR 2021/01/20 17:56 UTC NOAA

KFCS 201756Z AUTO 11005KT 10SM CLR 10/M09 A2999 RMK AO2 SLP190 T01021090 10104 21087 58004 $


Station Type Date Time Source
KFCS Decoded METAR 2021/01/20 17:56 UTC NOAA

Fort Carson, CO, United States (KFCS) 38-42N 104-46W 1789M
Jan 20, 2021 - 12:56 PM EST / 2021.01.20 1756 UTC
Wind: from the ESE (110 degrees) at 6 MPH (5 KT):0
Visibility: 10 mile(s):0
Sky conditions: clear
Temperature: 50.4 F (10.2 C)
Dew Point: 15.8 F (-9.0 C)
Relative Humidity: 24%
Pressure (altimeter): 29.99 in. Hg (1015 hPa)
Pressure tendency: 0.01 inches (0.4 hPa) lower than three hours ago
ob: KFCS 201756Z AUTO 11005KT 10SM CLR 10/M09 A2999 RMK AO2 SLP190 T01021090 10104 21087 58004
cycle: 18

Station Type Date Time Source
KFCS TAF 2021/01/20 13:03 UTC NOAA

TAF KFCS 201300Z 2013/2119 20012KT 9999 SKC QNH3009INS
BECMG 2017/2018 28020G30KT 9999 SKC 530006 QNH2995INS
BECMG 2103/2104 28009KT 9999 FEW110 QNH2991INS TX11/2021Z TNM11/2014Z

Example: see airport list